createdAt,value
2019-03-09T00:00:59.693Z,5.47
2019-03-09T00:03:28.110Z,5.90
2019-03-09T00:05:56.650Z,6.28
2019-03-09T00:08:25.114Z,6.62
2019-03-09T00:10:53.751Z,6.95
2019-03-09T00:13:22.300Z,7.15
2019-03-09T00:15:51.203Z,8.08
2019-03-09T00:18:19.796Z,8.18
2019-03-09T00:20:48.237Z,8.53
2019-03-09T00:23:21.119Z,9.18
2019-03-09T00:26:07.433Z,9.00
2019-03-09T00:28:40.443Z,8.73
2019-03-09T00:31:26.658Z,9.68
2019-03-09T00:33:55.138Z,10.13
2019-03-09T00:36:23.570Z,10.93
2019-03-09T00:38:52.008Z,10.35
2019-03-09T00:41:20.585Z,10.85
2019-03-09T00:43:49.019Z,10.78
2019-03-09T00:46:17.470Z,10.63
2019-03-09T00:48:45.945Z,11.18
2019-03-09T00:51:14.702Z,11.25
2019-03-09T00:53:43.178Z,11.65
2019-03-09T00:56:12.106Z,11.00
2019-03-09T00:58:40.617Z,10.82
2019-03-09T01:01:09.068Z,11.20
2019-03-09T01:03:37.609Z,11.25
2019-03-09T01:06:06.212Z,11.68
2019-03-09T01:08:34.934Z,11.75
2019-03-09T01:11:03.674Z,12.13
2019-03-09T01:13:32.153Z,11.35
2019-03-09T01:16:00.709Z,12.55
2019-03-09T01:18:29.205Z,12.00
2019-03-09T01:20:57.693Z,11.63
2019-03-09T01:23:28.570Z,11.53
2019-03-09T01:25:57.478Z,11.10
2019-03-09T01:28:25.948Z,10.63
2019-03-09T01:30:54.425Z,11.22
2019-03-09T01:33:22.879Z,10.35
2019-03-09T01:38:14.004Z,10.55
2019-03-09T01:40:42.660Z,9.55
2019-03-09T01:43:11.093Z,9.58
2019-03-09T01:45:39.679Z,9.13
2019-03-09T01:48:08.133Z,8.50
2019-03-09T01:50:36.747Z,8.70
2019-03-09T01:53:05.503Z,8.15
2019-03-09T01:55:33.930Z,8.23
2019-03-09T01:58:02.765Z,8.03
2019-03-09T02:00:31.353Z,7.67
2019-03-09T02:02:59.792Z,7.50
2019-03-09T02:05:28.319Z,7.85
2019-03-09T02:07:56.778Z,8.28
2019-03-09T02:10:25.212Z,8.40
2019-03-09T02:12:54.516Z,8.75
2019-03-09T02:15:23.060Z,9.03
2019-03-09T02:17:51.720Z,9.43
2019-03-09T02:20:20.149Z,10.43
2019-03-09T02:22:48.665Z,9.98
2019-03-09T02:25:17.107Z,10.20
2019-03-09T02:27:45.728Z,10.05
2019-03-09T02:30:16.700Z,11.33
2019-03-09T02:32:45.222Z,10.50
2019-03-09T02:35:14.923Z,10.50
2019-03-09T02:37:43.401Z,10.70
2019-03-09T02:40:14.463Z,11.03
2019-03-09T02:42:43.123Z,11.30
2019-03-09T02:45:17.962Z,10.20
2019-03-09T02:47:46.409Z,10.15
2019-03-09T02:50:16.081Z,8.78
2019-03-09T02:52:45.145Z,9.15
2019-03-09T02:55:14.193Z,9.43
2019-03-09T02:57:42.626Z,9.08
2019-03-09T03:00:14.063Z,8.68
2019-03-09T03:02:52.772Z,9.03
2019-03-09T03:05:21.317Z,9.13
2019-03-09T03:07:51.066Z,8.40
2019-03-09T03:10:19.525Z,8.88
2019-03-09T03:12:47.978Z,8.85
2019-03-09T03:15:33.444Z,8.83
2019-03-09T03:18:02.299Z,9.45
2019-03-09T03:20:30.946Z,9.88
2019-03-09T03:22:59.351Z,10.63
2019-03-09T03:25:28.276Z,10.48
2019-03-09T03:27:56.727Z,11.12
2019-03-09T03:30:25.172Z,11.95
2019-03-09T03:32:55.610Z,12.58
2019-03-09T03:35:24.047Z,12.07
2019-03-09T03:37:52.561Z,13.18
2019-03-09T03:40:21.037Z,13.78
2019-03-09T03:42:49.490Z,14.23
2019-03-09T03:45:17.943Z,14.35
2019-03-09T03:47:46.441Z,14.87
2019-03-09T03:50:14.936Z,15.48
2019-03-09T03:52:43.369Z,14.70
2019-03-09T03:55:12.188Z,15.05
2019-03-09T03:57:40.984Z,14.38
2019-03-09T04:00:12.450Z,14.95
2019-03-09T04:02:40.915Z,13.93
2019-03-09T04:05:09.586Z,14.75
2019-03-09T04:07:38.653Z,14.65
2019-03-09T04:10:09.907Z,15.18
2019-03-09T04:12:38.339Z,16.15
2019-03-09T04:15:07.824Z,15.38
2019-03-09T04:17:36.328Z,15.53
2019-03-09T04:20:06.954Z,15.48
2019-03-09T04:22:35.385Z,15.93
2019-03-09T04:25:04.912Z,16.95
2019-03-09T04:27:33.506Z,16.32
2019-03-09T04:30:01.969Z,16.82
2019-03-09T04:32:30.665Z,16.75
2019-03-09T04:34:59.109Z,15.90
2019-03-09T04:37:27.631Z,15.68
2019-03-09T04:39:56.083Z,15.98
2019-03-09T04:42:24.523Z,16.32
2019-03-09T04:44:53.219Z,16.07
2019-03-09T04:47:22.025Z,16.05
2019-03-09T04:49:50.834Z,15.80
2019-03-09T04:52:19.293Z,14.00
2019-03-09T04:54:47.930Z,15.20
2019-03-09T04:57:16.365Z,15.48
2019-03-09T04:59:44.815Z,12.98
2019-03-09T05:02:13.290Z,13.90
2019-03-09T05:04:44.171Z,14.35
2019-03-09T05:07:15.253Z,12.75
2019-03-09T05:10:02.228Z,12.80
2019-03-09T05:12:32.843Z,11.43
2019-03-09T05:15:01.277Z,12.35
2019-03-09T05:17:29.754Z,12.40
2019-03-09T05:19:58.187Z,11.40
2019-03-09T05:22:26.633Z,11.20
2019-03-09T05:24:55.353Z,10.95
2019-03-09T05:27:23.794Z,8.40
2019-03-09T05:29:52.425Z,8.65
2019-03-09T05:32:20.853Z,7.92
2019-03-09T05:34:49.462Z,6.97
2019-03-09T05:37:17.917Z,6.65
2019-03-09T05:39:46.472Z,6.45
2019-03-09T05:42:14.890Z,5.83
2019-03-09T05:44:43.326Z,5.53
2019-03-09T05:47:11.808Z,4.22
2019-03-09T05:49:40.241Z,5.15
2019-03-09T05:52:23.988Z,3.70
2019-03-09T05:54:52.425Z,4.08
2019-03-09T05:57:20.866Z,4.60
2019-03-09T05:59:49.679Z,3.52
2019-03-09T06:02:18.246Z,3.50
2019-03-09T06:04:46.742Z,3.55
2019-03-09T06:07:15.295Z,4.15
2019-03-09T06:09:43.809Z,3.67
2019-03-09T06:12:12.242Z,3.35
2019-03-09T06:14:40.723Z,3.62
2019-03-09T06:17:09.410Z,3.80
2019-03-09T06:19:38.213Z,3.65
2019-03-09T06:22:06.722Z,3.33
2019-03-09T06:24:35.167Z,3.50
2019-03-09T06:27:03.616Z,3.70
2019-03-09T06:29:32.177Z,3.62
2019-03-09T06:32:32.586Z,3.67
2019-03-09T06:35:01.086Z,3.40
2019-03-09T06:37:31.582Z,3.75
2019-03-09T06:40:00.018Z,4.00
2019-03-09T06:42:31.949Z,4.10
2019-03-09T06:45:00.397Z,3.60
2019-03-09T06:47:29.086Z,3.60
2019-03-09T06:49:57.563Z,4.15
2019-03-09T06:52:26.090Z,3.75
2019-03-09T06:54:54.514Z,2.90
2019-03-09T06:57:22.988Z,3.70
2019-03-09T06:59:51.423Z,4.20
2019-03-09T07:02:20.254Z,3.58
2019-03-09T07:04:48.858Z,3.42
2019-03-09T07:07:17.341Z,3.98
2019-03-09T07:09:45.848Z,4.03
2019-03-09T07:12:14.321Z,3.83
2019-03-09T07:15:00.816Z,4.05
2019-03-09T07:17:29.297Z,4.40
2019-03-09T07:19:57.736Z,3.83
2019-03-09T07:22:26.583Z,4.45
2019-03-09T07:24:55.571Z,5.10
2019-03-09T07:27:24.169Z,5.03
2019-03-09T07:29:52.613Z,4.35
2019-03-09T07:32:21.074Z,5.35
2019-03-09T07:34:49.504Z,5.30
2019-03-09T07:37:17.945Z,5.58
2019-03-09T07:39:46.431Z,4.78
2019-03-09T07:42:14.851Z,5.05
2019-03-09T07:44:43.323Z,5.62
2019-03-09T07:47:12.424Z,5.70
2019-03-09T07:49:40.924Z,6.70
2019-03-09T07:52:31.497Z,6.20
2019-03-09T07:55:00.001Z,5.50
2019-03-09T07:57:28.432Z,5.80
2019-03-09T07:59:56.901Z,6.05
2019-03-09T08:02:25.344Z,6.28
2019-03-09T08:04:53.823Z,6.03
2019-03-09T08:07:22.337Z,5.83
2019-03-09T08:09:50.771Z,5.83
2019-03-09T08:12:19.503Z,5.45
2019-03-09T08:14:48.008Z,5.87
2019-03-09T08:17:16.524Z,4.45
2019-03-09T08:19:44.991Z,5.47
2019-03-09T08:22:13.798Z,5.70
2019-03-09T08:24:42.331Z,5.17
2019-03-09T08:27:10.776Z,6.10
2019-03-09T08:29:39.791Z,5.42
2019-03-09T08:32:08.237Z,4.90
2019-03-09T08:34:36.778Z,6.00
2019-03-09T08:37:05.283Z,5.00
2019-03-09T08:39:33.730Z,4.70
2019-03-09T08:42:02.181Z,4.62
2019-03-09T08:44:30.632Z,4.90
2019-03-09T08:46:59.062Z,4.55
2019-03-09T08:49:27.671Z,4.87
2019-03-09T08:51:56.228Z,4.17
2019-03-09T08:54:25.036Z,4.37
2019-03-09T08:56:53.492Z,4.25
2019-03-09T08:59:21.997Z,4.00
2019-03-09T09:01:50.681Z,4.53
2019-03-09T09:04:19.178Z,4.65
2019-03-09T09:06:47.650Z,4.60
2019-03-09T09:09:16.088Z,3.37
2019-03-09T09:11:44.638Z,4.65
2019-03-09T09:14:13.116Z,4.75
2019-03-09T09:16:41.798Z,5.42
2019-03-09T09:19:10.235Z,4.53
2019-03-09T09:21:38.839Z,5.08
2019-03-09T09:24:07.283Z,4.65
2019-03-09T09:26:35.789Z,4.55
2019-03-09T09:29:04.980Z,5.55
2019-03-09T09:31:33.423Z,4.70
2019-03-09T09:34:01.878Z,5.37
2019-03-09T09:36:30.342Z,4.72
2019-03-09T09:38:58.779Z,4.37
2019-03-09T09:41:27.618Z,4.70
2019-03-09T09:43:56.283Z,4.17
2019-03-09T09:46:24.714Z,4.30
2019-03-09T09:48:53.152Z,4.03
2019-03-09T09:51:21.746Z,4.35
2019-03-09T09:53:50.189Z,3.58
2019-03-09T09:56:18.650Z,4.30
2019-03-09T09:58:47.201Z,3.60
2019-03-09T10:01:15.929Z,4.10
2019-03-09T10:03:44.545Z,4.35
2019-03-09T10:06:13.290Z,5.10
2019-03-09T10:08:41.729Z,4.90
2019-03-09T10:11:10.172Z,4.65
2019-03-09T10:13:38.778Z,4.67
2019-03-09T10:16:07.221Z,4.00
2019-03-09T10:18:35.934Z,4.60
2019-03-09T10:21:04.706Z,4.33
2019-03-09T10:23:35.034Z,5.08
2019-03-09T10:26:05.059Z,4.92
2019-03-09T10:28:34.163Z,4.62
2019-03-09T10:31:03.026Z,4.00
2019-03-09T10:33:32.146Z,3.60
2019-03-09T10:36:00.673Z,3.72
2019-03-09T10:38:29.175Z,4.05
2019-03-09T10:40:57.625Z,5.55
2019-03-09T10:43:26.238Z,4.75
2019-03-09T10:45:55.079Z,3.90
2019-03-09T10:48:23.564Z,3.92
2019-03-09T10:50:52.051Z,4.35
2019-03-09T10:53:20.484Z,4.42
2019-03-09T10:55:48.924Z,4.33
2019-03-09T10:58:17.621Z,4.37
2019-03-09T11:00:46.232Z,3.75
2019-03-09T11:03:14.737Z,4.37
2019-03-09T11:05:43.775Z,4.35
2019-03-09T11:08:12.234Z,4.05
2019-03-09T11:10:40.700Z,4.75
2019-03-09T11:13:10.371Z,4.17
2019-03-09T11:15:38.813Z,4.67
2019-03-09T11:18:07.330Z,3.27
2019-03-09T11:20:35.791Z,4.30
2019-03-09T11:23:04.229Z,3.90
2019-03-09T11:25:32.765Z,3.67
2019-03-09T11:28:06.993Z,4.72
2019-03-09T11:30:35.563Z,4.35
2019-03-09T11:33:04.375Z,4.47
2019-03-09T11:35:33.470Z,3.77
2019-03-09T11:38:02.162Z,4.25
2019-03-09T11:40:30.890Z,4.10
2019-03-09T11:43:00.790Z,4.17
2019-03-09T11:45:30.946Z,4.05
2019-03-09T11:47:59.459Z,4.42
2019-03-09T11:50:27.928Z,4.40
2019-03-09T11:52:56.581Z,3.62
2019-03-09T11:55:25.275Z,2.75
2019-03-09T11:57:53.790Z,3.35
2019-03-09T12:00:24.914Z,3.25
2019-03-09T12:02:53.410Z,3.80
2019-03-09T12:05:22.030Z,3.30
2019-03-09T12:07:50.757Z,2.20
2019-03-09T12:10:19.287Z,3.33
2019-03-09T12:12:50.667Z,3.62
2019-03-09T12:15:19.380Z,3.45
2019-03-09T12:21:17.568Z,3.33
2019-03-09T12:23:46.056Z,3.65
2019-03-09T12:26:14.503Z,3.45
2019-03-09T12:28:42.990Z,3.45
2019-03-09T12:31:11.442Z,2.55
2019-03-09T12:33:39.914Z,3.30
2019-03-09T12:36:08.723Z,3.40
2019-03-09T12:38:37.207Z,3.37
2019-03-09T12:41:05.659Z,3.25
2019-03-09T12:43:34.177Z,3.37
2019-03-09T12:46:02.611Z,3.02
2019-03-09T12:48:31.071Z,3.40
2019-03-09T12:50:59.484Z,3.05
2019-03-09T12:53:27.956Z,4.17
2019-03-09T12:55:56.501Z,3.60
2019-03-09T12:58:24.951Z,3.60
2019-03-09T13:00:55.896Z,3.65
2019-03-09T13:03:24.337Z,3.95
2019-03-09T13:05:52.783Z,4.25
2019-03-09T13:08:23.448Z,4.30
2019-03-09T13:10:56.008Z,4.03
2019-03-09T13:13:24.566Z,4.85
2019-03-09T13:15:53.379Z,3.22
2019-03-09T13:18:21.878Z,3.40
2019-03-09T13:20:50.525Z,3.70
2019-03-09T13:23:19.575Z,4.00
2019-03-09T13:25:48.012Z,3.98
2019-03-09T13:28:16.464Z,3.75
2019-03-09T13:30:45.245Z,3.35
2019-03-09T13:33:13.699Z,4.28
2019-03-09T13:35:42.371Z,3.65
2019-03-09T13:38:10.931Z,3.37
2019-03-09T13:40:39.472Z,3.45
2019-03-09T13:43:07.979Z,3.20
2019-03-09T13:45:36.691Z,3.80
2019-03-09T13:48:05.130Z,3.52
2019-03-09T13:50:33.575Z,3.15
2019-03-09T13:53:02.287Z,3.20
2019-03-09T13:55:31.119Z,3.62
2019-03-09T13:57:59.568Z,3.22
2019-03-09T14:00:28.038Z,3.90
2019-03-09T14:02:56.468Z,3.85
2019-03-09T14:05:25.077Z,3.50
2019-03-09T14:07:53.635Z,4.08
2019-03-09T14:10:22.098Z,3.80
2019-03-09T14:12:51.000Z,3.95
2019-03-09T14:15:19.875Z,3.20
2019-03-09T14:17:48.319Z,3.87
2019-03-09T14:20:17.634Z,4.80
2019-03-09T14:22:46.319Z,3.62
2019-03-09T14:25:16.298Z,3.00
2019-03-09T14:27:44.801Z,3.50
2019-03-09T14:30:16.200Z,3.20
2019-03-09T14:32:44.631Z,3.15
2019-03-09T14:35:13.864Z,3.85
2019-03-09T14:37:42.320Z,3.50
2019-03-09T14:40:13.469Z,3.30
2019-03-09T14:42:42.209Z,3.20
2019-03-09T14:45:16.766Z,2.87
2019-03-09T14:47:45.563Z,3.50
2019-03-09T14:50:14.538Z,3.35
2019-03-09T14:52:43.547Z,4.03
2019-03-09T14:55:12.911Z,3.80
2019-03-09T14:57:41.598Z,3.55
2019-03-09T15:00:13.290Z,2.90
2019-03-09T15:02:41.920Z,3.87
2019-03-09T15:05:10.570Z,2.92
2019-03-09T15:07:39.521Z,4.12
2019-03-09T15:10:10.114Z,3.60
2019-03-09T15:12:38.527Z,4.30
2019-03-09T15:15:10.108Z,3.33
2019-03-09T15:17:38.554Z,3.65
2019-03-09T15:20:10.014Z,4.30
2019-03-09T15:22:38.907Z,3.62
2019-03-09T15:25:10.485Z,3.42
2019-03-09T15:27:38.931Z,3.12
2019-03-09T15:30:10.804Z,3.25
2019-03-09T15:32:39.339Z,3.83
2019-03-09T15:35:08.919Z,3.60
2019-03-09T15:37:37.405Z,3.40
2019-03-09T15:40:08.918Z,3.17
2019-03-09T15:42:37.651Z,3.10
2019-03-09T15:45:09.550Z,2.95
2019-03-09T15:47:38.046Z,3.47
2019-03-09T15:50:12.322Z,3.58
2019-03-09T15:52:41.099Z,3.40
2019-03-09T15:55:10.642Z,2.90
2019-03-09T15:57:39.615Z,2.20
2019-03-09T16:00:17.652Z,2.15
2019-03-09T16:02:46.291Z,2.98
2019-03-09T16:05:15.079Z,1.82
2019-03-09T16:07:44.117Z,2.60
2019-03-09T16:10:15.392Z,2.45
2019-03-09T16:12:43.817Z,2.10
2019-03-09T16:15:14.966Z,1.90
2019-03-09T16:17:43.653Z,2.10
2019-03-09T16:20:14.637Z,2.37
2019-03-09T16:22:44.023Z,1.77
2019-03-09T16:25:13.036Z,2.10
2019-03-09T16:27:41.808Z,2.17
2019-03-09T16:30:20.995Z,2.42
2019-03-09T16:32:51.111Z,2.50
2019-03-09T16:35:19.661Z,2.12
2019-03-09T16:37:49.323Z,2.70
2019-03-09T16:40:20.552Z,2.80
2019-03-09T16:42:55.616Z,3.30
2019-03-09T16:45:24.054Z,3.22
2019-03-09T16:47:52.578Z,3.47
2019-03-09T16:50:21.260Z,3.30
2019-03-09T16:52:49.761Z,3.60
2019-03-09T16:55:18.216Z,3.52
2019-03-09T16:57:46.738Z,3.47
2019-03-09T17:00:17.758Z,3.75
2019-03-09T17:02:46.415Z,3.22
2019-03-09T17:05:30.677Z,3.77
2019-03-09T17:08:04.968Z,3.50
2019-03-09T17:10:33.574Z,3.55
2019-03-09T17:13:02.117Z,4.00
2019-03-09T17:15:30.548Z,3.95
2019-03-09T17:18:02.625Z,3.62
2019-03-09T17:22:59.148Z,3.77
2019-03-09T17:25:27.580Z,4.00
2019-03-09T17:27:56.382Z,3.72
2019-03-09T17:30:25.082Z,4.60
2019-03-09T17:32:53.731Z,4.45
2019-03-09T17:35:22.446Z,4.00
2019-03-09T17:37:51.111Z,4.80
2019-03-09T17:40:20.609Z,3.83
2019-03-09T17:42:49.174Z,3.42
2019-03-09T17:45:22.715Z,3.35
2019-03-09T17:47:51.324Z,3.45
2019-03-09T17:50:20.033Z,1.72
2019-03-09T17:52:50.496Z,1.40
2019-03-09T17:55:19.773Z,1.20
2019-03-09T17:57:48.240Z,1.72
2019-03-09T18:00:41.835Z,2.35
2019-03-09T18:03:01.568Z,2.52
2019-03-09T18:05:30.006Z,2.60
2019-03-09T18:07:58.711Z,1.20
2019-03-09T18:10:42.141Z,1.82
2019-03-09T18:13:10.585Z,1.12
2019-03-09T18:15:39.268Z,1.27
2019-03-09T18:18:07.845Z,1.10
2019-03-09T18:20:36.460Z,1.45
2019-03-09T18:23:05.649Z,2.10
2019-03-09T18:25:34.159Z,1.82
2019-03-09T18:28:02.573Z,1.45
2019-03-09T18:30:32.157Z,1.72
2019-03-09T18:33:00.802Z,1.45
2019-03-09T18:35:29.240Z,2.02
2019-03-09T18:37:57.687Z,1.57
2019-03-09T18:40:26.621Z,1.85
2019-03-09T18:42:55.076Z,2.05
2019-03-09T18:45:24.582Z,1.80
2019-03-09T18:47:53.066Z,2.27
2019-03-09T18:50:21.546Z,1.12
2019-03-09T18:52:50.090Z,1.72
2019-03-09T18:55:18.756Z,1.35
2019-03-09T18:57:53.271Z,2.37
2019-03-09T19:00:22.561Z,1.35
2019-03-09T19:02:51.438Z,2.20
2019-03-09T19:05:20.719Z,2.00
2019-03-09T19:07:49.326Z,2.20
2019-03-09T19:10:20.538Z,1.60
2019-03-09T19:12:49.412Z,2.50
2019-03-09T19:15:18.958Z,1.75
2019-03-09T19:17:47.856Z,2.42
2019-03-09T19:20:21.777Z,2.42
2019-03-09T19:22:50.311Z,2.37
2019-03-09T19:25:18.774Z,2.20
2019-03-09T19:27:47.248Z,2.40
2019-03-09T19:30:20.868Z,3.00
2019-03-09T19:32:59.558Z,2.70
2019-03-09T19:35:20.273Z,4.87
2019-03-09T19:37:48.732Z,2.52
2019-03-09T19:40:19.403Z,2.58
2019-03-09T19:42:47.838Z,3.40
2019-03-09T19:45:17.939Z,2.75
2019-03-09T19:47:46.547Z,2.87
2019-03-09T19:50:26.334Z,2.83
2019-03-09T19:52:55.111Z,2.75
2019-03-09T19:55:23.561Z,2.50
2019-03-09T19:57:52.012Z,2.70
2019-03-09T20:00:22.052Z,3.02
2019-03-09T20:02:50.829Z,3.12
2019-03-09T20:05:19.588Z,3.00
2019-03-09T20:07:48.035Z,3.10
2019-03-09T20:10:19.610Z,4.00
2019-03-09T20:12:48.690Z,2.95
2019-03-09T20:15:18.777Z,3.20
2019-03-09T20:17:47.258Z,3.33
2019-03-09T20:20:17.674Z,3.20
2019-03-09T20:22:46.380Z,3.35
2019-03-09T20:25:15.007Z,3.72
2019-03-09T20:27:43.526Z,2.98
2019-03-09T20:30:19.206Z,3.20
2019-03-09T20:32:47.858Z,3.40
2019-03-09T20:35:16.297Z,2.45
2019-03-09T20:37:50.643Z,3.40
2019-03-09T20:40:19.200Z,3.40
2019-03-09T20:42:47.730Z,4.85
2019-03-09T20:45:17.747Z,3.33
2019-03-09T20:47:46.215Z,4.25
2019-03-09T20:50:22.347Z,3.25
2019-03-09T20:52:50.959Z,3.50
2019-03-09T20:55:19.393Z,3.22
2019-03-09T20:57:49.373Z,3.35
2019-03-09T21:00:19.732Z,4.20
2019-03-09T21:02:48.385Z,4.20
2019-03-09T21:05:16.833Z,3.60
2019-03-09T21:07:45.303Z,3.25
2019-03-09T21:10:19.365Z,4.35
2019-03-09T21:13:02.460Z,3.90
2019-03-09T21:15:31.003Z,3.77
2019-03-09T21:17:59.454Z,3.98
2019-03-09T21:20:28.698Z,4.17
2019-03-09T21:22:57.217Z,3.40
2019-03-09T21:25:26.180Z,2.95
2019-03-09T21:27:54.985Z,3.67
2019-03-09T21:30:23.596Z,4.10
2019-03-09T21:32:52.105Z,3.25
2019-03-09T21:35:20.577Z,3.72
2019-03-09T21:37:49.098Z,3.15
2019-03-09T21:40:17.774Z,2.62
2019-03-09T21:42:46.263Z,3.42
2019-03-09T21:45:15.323Z,3.05
2019-03-09T21:47:43.836Z,3.65
2019-03-09T21:50:17.671Z,2.75
2019-03-09T21:52:46.106Z,3.08
2019-03-09T21:55:15.795Z,3.65
2019-03-09T21:57:44.253Z,2.80
2019-03-09T22:00:20.072Z,2.55
2019-03-09T22:02:50.409Z,2.62
2019-03-09T22:05:19.127Z,3.08
2019-03-09T22:07:47.716Z,3.22
2019-03-09T22:10:17.107Z,3.62
2019-03-09T22:12:46.447Z,3.60
2019-03-09T22:15:16.232Z,3.17
2019-03-09T22:17:52.162Z,3.40
2019-03-09T22:20:20.890Z,4.72
2019-03-09T22:22:49.500Z,3.10
2019-03-09T22:25:18.439Z,3.87
2019-03-09T22:27:46.890Z,3.25
2019-03-09T22:30:17.140Z,2.72
2019-03-09T22:32:47.395Z,3.45
2019-03-09T22:35:18.979Z,3.55
2019-03-09T22:38:45.450Z,3.00
2019-03-09T22:48:23.802Z,2.90
2019-03-09T22:50:56.109Z,2.60
2019-03-09T22:53:31.288Z,2.98
2019-03-09T22:56:20.954Z,2.70
2019-03-09T22:58:49.525Z,3.08
2019-03-09T23:01:21.554Z,2.62
2019-03-09T23:06:24.194Z,2.50
2019-03-09T23:08:52.641Z,2.67
2019-03-09T23:11:21.697Z,2.65
2019-03-09T23:13:50.351Z,3.58
2019-03-09T23:16:20.211Z,2.80
2019-03-09T23:18:48.748Z,2.40
2019-03-09T23:21:17.183Z,2.72
2019-03-09T23:23:45.620Z,3.30
2019-03-09T23:26:14.459Z,3.00
2019-03-09T23:28:47.486Z,2.83
2019-03-09T23:31:17.084Z,4.00
2019-03-09T23:34:13.503Z,2.58
2019-03-09T23:36:43.401Z,2.52
2019-03-09T23:39:14.622Z,2.15
2019-03-09T23:41:43.894Z,2.55
2019-03-09T23:44:12.378Z,2.67
2019-03-09T23:46:56.153Z,2.80
2019-03-09T23:50:01.485Z,2.90
2019-03-09T23:52:30.048Z,2.42
2019-03-09T23:54:58.561Z,2.67
2019-03-09T23:57:27.023Z,2.90
